createdAt,value
2018-12-31T00:01:00.692Z,10.65
2018-12-31T00:03:26.815Z,9.78
2018-12-31T00:05:53.444Z,11.70
2018-12-31T00:08:19.667Z,11.33
2018-12-31T00:10:45.756Z,10.25
2018-12-31T00:13:11.824Z,11.35
2018-12-31T00:15:37.933Z,11.03
2018-12-31T00:18:04.003Z,12.15
2018-12-31T00:20:30.096Z,10.63
2018-12-31T00:22:56.258Z,11.95
2018-12-31T00:25:22.332Z,11.30
2018-12-31T00:27:48.437Z,11.43
2018-12-31T00:30:14.503Z,12.37
2018-12-31T00:32:40.622Z,12.98
2018-12-31T00:35:06.688Z,13.03
2018-12-31T00:37:32.769Z,13.03
2018-12-31T00:39:58.860Z,12.00
2018-12-31T00:42:24.923Z,12.55
2018-12-31T00:44:51.007Z,14.70
2018-12-31T00:47:17.075Z,13.58
2018-12-31T00:49:43.199Z,14.30
2018-12-31T00:52:09.272Z,12.68
2018-12-31T00:54:35.346Z,12.98
2018-12-31T00:57:01.468Z,12.65
2018-12-31T00:59:27.611Z,10.90
2018-12-31T01:01:53.695Z,11.90
2018-12-31T01:04:19.759Z,14.07
2018-12-31T01:06:45.835Z,13.40
2018-12-31T01:09:12.023Z,13.62
2018-12-31T01:11:38.124Z,13.08
2018-12-31T01:14:04.316Z,12.58
2018-12-31T01:16:31.310Z,11.15
2018-12-31T01:18:57.395Z,13.38
2018-12-31T01:21:23.482Z,11.88
2018-12-31T01:23:49.544Z,12.23
2018-12-31T01:26:15.628Z,12.37
2018-12-31T01:28:41.700Z,12.95
2018-12-31T01:31:07.812Z,12.55
2018-12-31T01:33:33.952Z,12.78
2018-12-31T01:36:00.119Z,11.25
2018-12-31T01:38:26.187Z,13.80
2018-12-31T01:40:52.275Z,11.50
2018-12-31T01:43:18.352Z,13.00
2018-12-31T01:45:44.442Z,11.55
2018-12-31T01:48:10.512Z,10.50
2018-12-31T01:50:36.575Z,12.20
2018-12-31T01:53:02.655Z,11.35
2018-12-31T01:55:28.728Z,11.15
2018-12-31T01:57:54.831Z,10.85
2018-12-31T02:00:20.900Z,10.05
2018-12-31T02:02:46.983Z,10.43
2018-12-31T02:05:13.084Z,9.83
2018-12-31T02:07:39.167Z,11.30
2018-12-31T02:10:05.648Z,10.38
2018-12-31T02:12:31.738Z,9.10
2018-12-31T02:14:57.815Z,10.60
2018-12-31T02:17:24.091Z,11.48
2018-12-31T02:19:50.282Z,10.75
2018-12-31T02:22:16.359Z,9.30
2018-12-31T02:24:42.435Z,9.60
2018-12-31T02:27:08.521Z,11.03
2018-12-31T02:29:34.601Z,10.23
2018-12-31T02:32:00.691Z,9.00
2018-12-31T02:34:26.785Z,9.73
2018-12-31T02:36:52.868Z,10.60
2018-12-31T02:39:18.952Z,10.10
2018-12-31T02:41:45.021Z,9.93
2018-12-31T02:44:11.147Z,10.10
2018-12-31T02:46:37.323Z,10.88
2018-12-31T02:49:03.413Z,8.55
2018-12-31T02:51:29.486Z,9.35
2018-12-31T02:53:55.602Z,9.58
2018-12-31T02:56:21.739Z,9.30
2018-12-31T02:58:47.831Z,8.33
2018-12-31T03:01:13.899Z,8.25
2018-12-31T03:03:40.015Z,10.32
2018-12-31T03:06:06.146Z,9.75
2018-12-31T03:08:32.315Z,9.93
2018-12-31T03:10:58.391Z,10.50
2018-12-31T03:13:24.470Z,9.83
2018-12-31T03:15:50.544Z,8.78
2018-12-31T03:18:16.627Z,9.05
2018-12-31T03:20:42.748Z,8.40
2018-12-31T03:23:08.836Z,8.20
2018-12-31T03:25:34.972Z,7.72
2018-12-31T03:28:01.118Z,8.10
2018-12-31T03:30:27.491Z,9.73
2018-12-31T03:32:53.774Z,7.50
2018-12-31T03:35:19.864Z,9.08
2018-12-31T03:37:45.927Z,7.60
2018-12-31T03:40:12.325Z,6.53
2018-12-31T03:42:38.392Z,7.35
2018-12-31T03:45:05.282Z,7.62
2018-12-31T03:47:31.369Z,6.35
2018-12-31T03:49:57.543Z,6.50
2018-12-31T03:52:23.610Z,5.90
2018-12-31T03:54:49.701Z,5.62
2018-12-31T03:57:15.771Z,4.87
2018-12-31T03:59:41.858Z,5.67
2018-12-31T04:02:07.968Z,4.67
2018-12-31T04:04:34.069Z,5.35
2018-12-31T04:07:00.163Z,4.53
2018-12-31T04:09:26.260Z,6.03
2018-12-31T04:11:52.330Z,5.97
2018-12-31T04:14:18.519Z,4.72
2018-12-31T04:16:44.666Z,5.05
2018-12-31T04:19:10.913Z,5.33
2018-12-31T04:21:36.984Z,3.55
2018-12-31T04:24:03.064Z,4.35
2018-12-31T04:26:29.137Z,4.10
2018-12-31T04:28:55.212Z,4.70
2018-12-31T04:31:21.292Z,4.25
2018-12-31T04:33:47.380Z,4.37
2018-12-31T04:36:13.442Z,4.70
2018-12-31T04:38:39.516Z,4.00
2018-12-31T04:41:05.607Z,4.40
2018-12-31T04:43:31.784Z,4.15
2018-12-31T04:45:57.876Z,4.35
2018-12-31T04:48:24.031Z,4.67
2018-12-31T04:50:50.116Z,4.85
2018-12-31T04:53:16.175Z,5.05
2018-12-31T04:55:44.558Z,5.12
2018-12-31T04:58:10.328Z,4.58
2018-12-31T05:00:36.417Z,5.95
2018-12-31T05:03:02.581Z,5.25
2018-12-31T05:05:28.698Z,5.00
2018-12-31T05:07:54.851Z,4.90
2018-12-31T05:10:20.931Z,4.50
2018-12-31T05:12:46.999Z,5.55
2018-12-31T05:15:13.098Z,4.10
2018-12-31T05:17:39.264Z,4.25
2018-12-31T05:20:05.341Z,4.72
2018-12-31T05:22:31.411Z,5.00
2018-12-31T05:24:57.631Z,4.00
2018-12-31T05:27:23.700Z,4.60
2018-12-31T05:29:49.800Z,5.05
2018-12-31T05:32:15.886Z,4.83
2018-12-31T05:34:42.060Z,3.42
2018-12-31T05:37:08.138Z,3.85
2018-12-31T05:39:34.230Z,3.58
2018-12-31T05:42:00.279Z,3.95
2018-12-31T05:44:26.356Z,4.65
2018-12-31T05:46:52.431Z,3.90
2018-12-31T05:49:18.544Z,3.60
2018-12-31T05:51:44.627Z,3.17
2018-12-31T05:54:10.706Z,3.72
2018-12-31T05:56:36.787Z,2.92
2018-12-31T05:59:02.855Z,3.20
2018-12-31T06:01:28.941Z,3.62
2018-12-31T06:03:55.027Z,3.37
2018-12-31T06:06:21.147Z,2.67
2018-12-31T06:08:47.222Z,4.15
2018-12-31T06:11:13.304Z,2.90
2018-12-31T06:13:39.371Z,2.92
2018-12-31T06:16:05.461Z,2.95
2018-12-31T06:18:31.524Z,2.65
2018-12-31T06:20:57.607Z,3.02
2018-12-31T06:23:23.710Z,2.80
2018-12-31T06:25:49.836Z,2.55
2018-12-31T06:28:15.916Z,3.20
2018-12-31T06:30:42.019Z,2.90
2018-12-31T06:33:08.195Z,2.40
2018-12-31T06:35:34.280Z,3.00
2018-12-31T06:38:00.383Z,2.35
2018-12-31T06:40:28.503Z,2.67
2018-12-31T06:42:54.531Z,2.22
2018-12-31T06:45:20.604Z,2.58
2018-12-31T06:47:46.678Z,2.70
2018-12-31T06:50:12.756Z,2.77
2018-12-31T06:52:38.844Z,2.55
2018-12-31T06:55:05.019Z,2.60
2018-12-31T06:57:31.115Z,3.25
2018-12-31T06:59:57.332Z,2.40
2018-12-31T07:02:23.510Z,11.83
2018-12-31T07:04:49.648Z,4.45
2018-12-31T07:07:15.736Z,3.52
2018-12-31T07:09:41.794Z,2.52
2018-12-31T07:12:07.875Z,4.58
2018-12-31T07:14:33.939Z,2.77
2018-12-31T07:17:00.023Z,2.58
2018-12-31T07:19:26.092Z,2.60
2018-12-31T07:21:52.199Z,3.85
2018-12-31T07:24:18.272Z,2.70
2018-12-31T07:26:44.337Z,13.85
2018-12-31T07:29:10.424Z,10.78
2018-12-31T07:31:36.504Z,10.23
2018-12-31T07:34:02.651Z,9.85
2018-12-31T07:36:28.807Z,5.60
2018-12-31T07:38:54.887Z,3.67
2018-12-31T07:41:20.955Z,3.10
2018-12-31T07:43:47.036Z,5.20
2018-12-31T07:46:13.104Z,3.17
2018-12-31T07:48:39.194Z,2.87
2018-12-31T07:51:05.268Z,4.97
2018-12-31T07:53:31.340Z,3.50
2018-12-31T07:55:57.419Z,3.55
2018-12-31T07:58:23.491Z,2.12
2018-12-31T08:00:49.571Z,2.58
2018-12-31T08:03:15.640Z,3.65
2018-12-31T08:05:41.715Z,1.35
2018-12-31T08:08:07.799Z,2.05
2018-12-31T08:10:33.883Z,4.47
2018-12-31T08:12:59.962Z,22.98
2018-12-31T08:15:26.139Z,26.48
2018-12-31T08:17:52.216Z,44.73
2018-12-31T08:20:18.311Z,44.65
2018-12-31T08:22:44.375Z,27.17
2018-12-31T08:25:10.454Z,10.90
2018-12-31T08:27:36.631Z,3.60
2018-12-31T08:30:04.020Z,4.72
2018-12-31T08:32:30.107Z,4.30
2018-12-31T08:34:56.284Z,1.50
2018-12-31T08:37:22.368Z,6.85
2018-12-31T08:39:48.458Z,9.28
2018-12-31T08:42:14.572Z,9.15
2018-12-31T08:44:40.926Z,6.50
2018-12-31T08:47:07.216Z,4.95
2018-12-31T08:49:33.310Z,5.17
2018-12-31T08:51:59.476Z,5.55
2018-12-31T08:54:25.564Z,3.65
2018-12-31T08:56:51.639Z,4.12
2018-12-31T08:59:17.723Z,3.75
2018-12-31T09:01:43.791Z,3.45
2018-12-31T09:04:09.871Z,2.67
2018-12-31T09:06:35.959Z,2.30
2018-12-31T09:09:04.571Z,1.57
2018-12-31T09:11:30.639Z,1.62
2018-12-31T09:13:56.703Z,1.80
2018-12-31T09:16:22.790Z,3.60
2018-12-31T09:18:48.847Z,2.37
2018-12-31T09:21:14.943Z,1.62
2018-12-31T09:23:41.015Z,1.80
2018-12-31T09:26:07.118Z,1.65
2018-12-31T09:28:33.184Z,1.65
2018-12-31T09:30:59.296Z,0.80
2018-12-31T09:33:25.364Z,1.55
2018-12-31T09:35:51.449Z,1.32
2018-12-31T09:38:17.516Z,1.10
2018-12-31T09:40:43.620Z,1.10
2018-12-31T09:43:09.756Z,0.95
2018-12-31T09:45:35.942Z,0.90
2018-12-31T09:48:02.060Z,0.60
2018-12-31T09:50:28.162Z,0.60
2018-12-31T09:52:54.231Z,0.65
2018-12-31T09:55:20.330Z,5.67
2018-12-31T09:57:46.400Z,12.10
2018-12-31T10:00:12.468Z,3.42
2018-12-31T10:02:38.564Z,8.68
2018-12-31T10:05:04.647Z,1.80
2018-12-31T10:07:30.728Z,2.77
2018-12-31T10:09:56.815Z,10.40
2018-12-31T10:12:22.911Z,3.30
2018-12-31T10:14:49.071Z,2.60
2018-12-31T10:17:15.151Z,3.37
2018-12-31T10:19:41.219Z,11.08
2018-12-31T10:22:07.303Z,9.05
2018-12-31T10:24:33.372Z,10.35
2018-12-31T10:26:59.467Z,5.45
2018-12-31T10:29:25.532Z,4.75
2018-12-31T10:31:51.615Z,11.00
2018-12-31T10:34:17.703Z,11.35
2018-12-31T10:36:43.767Z,12.00
2018-12-31T10:39:09.860Z,12.35
2018-12-31T10:41:35.928Z,11.15
2018-12-31T10:44:01.996Z,5.40
2018-12-31T10:46:28.176Z,33.45
2018-12-31T10:48:54.239Z,20.57
2018-12-31T10:51:20.318Z,18.80
2018-12-31T10:53:46.416Z,17.98
2018-12-31T10:56:12.475Z,29.35
2018-12-31T10:58:38.544Z,27.37
2018-12-31T11:01:04.635Z,6.92
2018-12-31T11:03:30.703Z,29.70
2018-12-31T11:05:57.009Z,13.40
2018-12-31T11:08:23.063Z,20.82
2018-12-31T11:10:49.127Z,10.30
2018-12-31T11:13:15.216Z,3.90
2018-12-31T11:15:41.292Z,3.25
2018-12-31T11:18:07.352Z,2.27
2018-12-31T11:20:33.410Z,2.15
2018-12-31T11:22:59.485Z,1.35
2018-12-31T11:25:25.562Z,4.25
2018-12-31T11:27:51.627Z,1.55
2018-12-31T11:30:17.852Z,1.30
2018-12-31T11:32:43.947Z,1.80
2018-12-31T11:35:10.052Z,1.57
2018-12-31T11:37:36.110Z,1.40
2018-12-31T11:40:02.196Z,2.25
2018-12-31T11:42:28.258Z,1.35
2018-12-31T11:44:54.335Z,1.70
2018-12-31T11:47:20.409Z,1.85
2018-12-31T11:49:46.471Z,1.17
2018-12-31T11:52:12.555Z,2.00
2018-12-31T11:54:39.415Z,3.12
2018-12-31T11:57:05.618Z,7.30
2018-12-31T11:59:31.689Z,2.58
2018-12-31T12:01:57.772Z,3.50
2018-12-31T12:04:23.840Z,3.27
2018-12-31T12:06:49.930Z,1.55
2018-12-31T12:09:16.115Z,6.58
2018-12-31T12:11:42.204Z,23.70
2018-12-31T12:14:08.273Z,11.00
2018-12-31T12:16:34.372Z,1.60
2018-12-31T12:19:00.444Z,7.20
2018-12-31T12:21:27.535Z,3.22
2018-12-31T12:23:53.727Z,1.50
2018-12-31T12:26:19.874Z,3.10
2018-12-31T12:28:46.036Z,1.50
2018-12-31T12:31:12.831Z,1.75
2018-12-31T12:33:38.928Z,2.40
2018-12-31T12:36:05.117Z,2.70
2018-12-31T12:38:31.296Z,5.50
2018-12-31T12:40:57.463Z,1.77
2018-12-31T12:43:23.573Z,1.70
2018-12-31T12:45:49.748Z,3.52
2018-12-31T12:48:15.844Z,2.72
2018-12-31T12:50:42.217Z,1.87
2018-12-31T12:53:08.375Z,6.10
2018-12-31T12:55:34.559Z,5.20
2018-12-31T12:58:00.672Z,2.10
2018-12-31T13:00:26.840Z,4.80
2018-12-31T13:02:52.919Z,2.70
2018-12-31T13:05:19.395Z,2.60
2018-12-31T13:07:46.897Z,2.08
2018-12-31T13:10:13.275Z,2.83
2018-12-31T13:12:39.368Z,2.00
2018-12-31T13:15:05.745Z,2.50
2018-12-31T13:17:31.859Z,4.47
2018-12-31T13:19:58.427Z,2.70
2018-12-31T13:22:24.611Z,2.65
2018-12-31T13:24:50.679Z,4.45
2018-12-31T13:27:16.759Z,6.47
2018-12-31T13:29:42.843Z,2.85
2018-12-31T13:32:08.942Z,2.60
2018-12-31T13:34:35.124Z,2.90
2018-12-31T13:37:01.307Z,2.47
2018-12-31T13:39:27.479Z,3.00
2018-12-31T13:41:53.580Z,2.60
2018-12-31T13:44:19.655Z,2.83
2018-12-31T13:46:45.831Z,3.33
2018-12-31T13:49:11.912Z,3.30
2018-12-31T13:51:39.503Z,2.72
2018-12-31T13:54:05.598Z,4.15
2018-12-31T13:56:31.765Z,3.60
2018-12-31T13:58:57.963Z,3.40
2018-12-31T14:01:24.107Z,3.00
2018-12-31T14:03:50.208Z,3.58
2018-12-31T14:06:16.778Z,3.20
2018-12-31T14:08:42.991Z,3.83
2018-12-31T14:11:09.091Z,4.10
2018-12-31T14:13:35.280Z,2.95
2018-12-31T14:16:01.551Z,4.10
2018-12-31T14:18:27.769Z,4.05
2018-12-31T14:20:54.245Z,3.62
2018-12-31T14:23:40.318Z,3.40
2018-12-31T14:26:06.405Z,14.33
2018-12-31T14:28:32.565Z,4.95
2018-12-31T14:30:58.641Z,4.15
2018-12-31T14:33:24.726Z,4.20
2018-12-31T14:35:50.942Z,3.87
2018-12-31T14:38:17.117Z,3.67
2018-12-31T14:40:43.216Z,3.83
2018-12-31T14:43:09.372Z,4.40
2018-12-31T14:45:35.456Z,4.65
2018-12-31T14:48:01.527Z,3.90
2018-12-31T14:50:27.709Z,3.37
2018-12-31T14:52:53.795Z,4.10
2018-12-31T14:55:20.332Z,4.20
2018-12-31T14:57:46.407Z,4.05
2018-12-31T15:00:12.718Z,3.10
2018-12-31T15:02:39.253Z,3.52
2018-12-31T15:05:05.533Z,4.75
2018-12-31T15:07:31.625Z,4.20
2018-12-31T15:09:57.783Z,3.55
2018-12-31T15:12:23.863Z,4.35
2018-12-31T15:14:50.042Z,3.62
2018-12-31T15:17:16.530Z,4.00
2018-12-31T15:19:42.633Z,3.65
2018-12-31T15:22:08.797Z,4.22
2018-12-31T15:24:34.908Z,4.70
2018-12-31T15:27:01.012Z,4.00
2018-12-31T15:29:27.199Z,3.90
2018-12-31T15:31:53.407Z,4.83
2018-12-31T15:34:19.576Z,3.65
2018-12-31T15:36:45.675Z,4.80
2018-12-31T15:39:11.847Z,4.03
2018-12-31T15:41:37.956Z,4.00
2018-12-31T15:44:04.024Z,4.40
2018-12-31T15:46:30.103Z,4.45
2018-12-31T15:48:56.683Z,3.80
2018-12-31T15:51:22.779Z,4.47
2018-12-31T15:53:48.871Z,4.92
2018-12-31T15:56:14.955Z,5.28
2018-12-31T15:58:41.019Z,4.67
2018-12-31T16:01:07.119Z,4.70
2018-12-31T16:03:33.193Z,5.30
2018-12-31T16:06:19.143Z,5.87
2018-12-31T16:08:45.335Z,4.90
2018-12-31T16:11:11.423Z,5.62
2018-12-31T16:13:37.587Z,6.20
2018-12-31T16:16:05.572Z,6.90
2018-12-31T16:18:31.665Z,6.72
2018-12-31T16:20:57.839Z,5.78
2018-12-31T16:23:24.910Z,6.55
2018-12-31T16:25:51.218Z,7.35
2018-12-31T16:28:17.308Z,7.30
2018-12-31T16:30:43.772Z,9.10
2018-12-31T16:33:09.872Z,8.05
2018-12-31T16:35:35.963Z,8.33
2018-12-31T16:38:02.132Z,9.58
2018-12-31T16:40:28.263Z,8.78
2018-12-31T16:42:54.395Z,7.97
2018-12-31T16:45:20.564Z,9.10
2018-12-31T16:47:46.729Z,8.45
2018-12-31T16:50:12.909Z,8.73
2018-12-31T16:52:39.071Z,9.75
2018-12-31T16:55:05.171Z,9.73
2018-12-31T16:57:31.235Z,10.45
2018-12-31T16:59:57.298Z,12.95
2018-12-31T17:02:23.887Z,11.70
2018-12-31T17:04:49.960Z,11.70
2018-12-31T17:07:16.043Z,12.68
2018-12-31T17:09:42.143Z,14.47
2018-12-31T17:12:08.235Z,24.30
2018-12-31T17:14:34.412Z,20.25
2018-12-31T17:17:01.662Z,21.65
2018-12-31T17:19:27.943Z,18.82
2018-12-31T17:21:54.124Z,13.75
2018-12-31T17:24:20.308Z,16.30
2018-12-31T17:26:49.723Z,42.85
2018-12-31T17:29:16.026Z,20.17
2018-12-31T17:31:42.238Z,20.85
2018-12-31T17:34:08.507Z,20.02
2018-12-31T17:36:34.585Z,16.65
2018-12-31T17:39:00.678Z,13.90
2018-12-31T17:41:26.839Z,14.83
2018-12-31T17:43:53.335Z,13.32
2018-12-31T17:46:19.420Z,12.33
2018-12-31T17:48:45.591Z,12.60
2018-12-31T17:51:11.666Z,13.10
2018-12-31T17:53:37.736Z,16.07
2018-12-31T17:56:03.940Z,12.73
2018-12-31T17:58:30.110Z,15.83
2018-12-31T18:00:56.285Z,13.25
2018-12-31T18:03:22.383Z,20.30
2018-12-31T18:05:48.848Z,13.58
2018-12-31T18:08:14.960Z,13.30
2018-12-31T18:10:41.024Z,12.25
2018-12-31T18:13:07.213Z,14.73
2018-12-31T18:15:33.375Z,13.03
2018-12-31T18:17:59.475Z,12.70
2018-12-31T18:20:25.956Z,13.45
2018-12-31T18:22:52.021Z,14.75
2018-12-31T18:25:18.218Z,14.45
2018-12-31T18:27:44.284Z,14.38
2018-12-31T18:30:10.383Z,14.55
2018-12-31T18:32:36.535Z,19.02
2018-12-31T18:35:03.131Z,15.28
2018-12-31T18:37:29.191Z,20.23
2018-12-31T18:39:57.989Z,26.48
2018-12-31T18:42:23.255Z,36.38
2018-12-31T18:44:49.343Z,15.13
2018-12-31T18:47:15.421Z,14.53
2018-12-31T18:49:41.499Z,17.25
2018-12-31T18:52:07.990Z,16.23
2018-12-31T18:54:34.153Z,15.50
2018-12-31T18:57:00.213Z,17.87
2018-12-31T18:59:26.299Z,16.35
2018-12-31T19:01:52.366Z,16.40
2018-12-31T19:04:18.460Z,16.12
2018-12-31T19:06:44.631Z,16.80
2018-12-31T19:09:10.739Z,17.98
2018-12-31T19:11:36.826Z,17.95
2018-12-31T19:14:04.014Z,16.07
2018-12-31T19:16:30.700Z,17.75
2018-12-31T19:18:56.864Z,15.83
2018-12-31T19:21:23.044Z,19.15
2018-12-31T19:23:49.627Z,22.00
2018-12-31T19:26:15.726Z,17.42
2018-12-31T19:28:41.991Z,18.37
2018-12-31T19:31:08.079Z,18.95
2018-12-31T19:33:34.176Z,17.02
2018-12-31T19:36:00.251Z,18.02
2018-12-31T19:38:26.439Z,17.85
2018-12-31T19:40:52.515Z,19.20
2018-12-31T19:43:18.639Z,17.05
2018-12-31T19:45:45.008Z,19.50
2018-12-31T19:48:11.076Z,19.30
2018-12-31T19:50:37.255Z,17.48
2018-12-31T19:53:03.435Z,20.05
2018-12-31T19:55:29.819Z,19.15
2018-12-31T19:57:55.889Z,18.12
2018-12-31T20:00:22.079Z,19.00
2018-12-31T20:02:48.148Z,17.02
2018-12-31T20:05:14.243Z,18.60
2018-12-31T20:07:40.419Z,17.45
2018-12-31T20:10:06.727Z,19.65
2018-12-31T20:12:32.808Z,19.23
2018-12-31T20:14:58.995Z,20.52
2018-12-31T20:17:25.093Z,18.67
2018-12-31T20:19:51.259Z,19.52
2018-12-31T20:22:17.331Z,19.80
2018-12-31T20:24:43.512Z,17.95
2018-12-31T20:27:09.687Z,20.45
2018-12-31T20:29:35.763Z,18.00
2018-12-31T20:32:01.933Z,18.70
2018-12-31T20:34:28.120Z,21.82
2018-12-31T20:36:54.287Z,22.20
2018-12-31T20:39:20.467Z,21.37
2018-12-31T20:41:46.646Z,20.12
2018-12-31T20:44:12.711Z,20.00
2018-12-31T20:46:38.996Z,22.10
2018-12-31T20:49:05.166Z,18.73
2018-12-31T20:51:31.343Z,19.80
2018-12-31T20:53:57.418Z,18.92
2018-12-31T20:56:23.512Z,20.57
2018-12-31T20:59:09.477Z,21.70
2018-12-31T21:01:35.639Z,19.05
2018-12-31T21:04:01.792Z,18.85
2018-12-31T21:06:27.868Z,19.20
2018-12-31T21:08:53.952Z,20.30
2018-12-31T21:11:20.122Z,21.65
2018-12-31T21:13:46.308Z,18.95
2018-12-31T21:16:12.480Z,23.45
2018-12-31T21:18:38.575Z,20.10
2018-12-31T21:21:04.639Z,20.90
2018-12-31T21:23:30.707Z,22.52
2018-12-31T21:25:58.542Z,26.07
2018-12-31T21:28:24.775Z,21.23
2018-12-31T21:30:51.181Z,17.73
2018-12-31T21:33:18.165Z,19.40
2018-12-31T21:35:44.341Z,20.48
2018-12-31T21:38:10.536Z,19.98
2018-12-31T21:40:36.604Z,17.90
2018-12-31T21:43:02.671Z,20.45
2018-12-31T21:45:28.887Z,17.48
2018-12-31T21:47:55.312Z,15.03
2018-12-31T21:50:21.499Z,15.80
2018-12-31T21:52:47.856Z,17.07
2018-12-31T21:55:14.039Z,19.57
2018-12-31T21:57:40.229Z,16.60
2018-12-31T22:00:07.703Z,15.25
2018-12-31T22:02:34.212Z,15.90
2018-12-31T22:05:00.282Z,15.25
2018-12-31T22:07:26.464Z,18.12
2018-12-31T22:09:52.548Z,16.62
2018-12-31T22:12:18.607Z,16.62
2018-12-31T22:14:44.892Z,15.80
2018-12-31T22:17:10.951Z,15.65
2018-12-31T22:19:37.539Z,14.80
2018-12-31T22:22:03.708Z,16.23
2018-12-31T22:24:29.775Z,15.05
2018-12-31T22:26:55.956Z,14.70
2018-12-31T22:29:22.027Z,15.65
2018-12-31T22:31:48.232Z,22.77
2018-12-31T22:34:14.406Z,217.62
2018-12-31T22:36:40.585Z,254.57
2018-12-31T22:39:06.764Z,180.35
2018-12-31T22:41:32.827Z,336.55
2018-12-31T22:43:59.020Z,140.62
2018-12-31T22:46:25.091Z,255.95
2018-12-31T22:48:51.253Z,92.40
2018-12-31T22:51:17.744Z,175.60
2018-12-31T22:53:43.803Z,147.00
2018-12-31T22:56:09.919Z,135.65
2018-12-31T22:58:35.987Z,107.40
2018-12-31T23:01:03.027Z,33.50
2018-12-31T23:03:29.187Z,44.67
2018-12-31T23:05:55.264Z,46.95
2018-12-31T23:08:21.582Z,87.15
2018-12-31T23:10:47.744Z,48.83
2018-12-31T23:13:13.836Z,43.15
2018-12-31T23:15:39.928Z,166.97
2018-12-31T23:18:06.108Z,533.15
2018-12-31T23:20:32.285Z,142.00
2018-12-31T23:22:58.752Z,119.30
2018-12-31T23:25:24.858Z,72.70
2018-12-31T23:27:50.923Z,37.33
2018-12-31T23:30:17.012Z,19.32
2018-12-31T23:32:43.204Z,25.08
2018-12-31T23:35:09.267Z,28.00
2018-12-31T23:37:55.240Z,39.78
2018-12-31T23:40:21.441Z,33.70
2018-12-31T23:42:47.515Z,39.65
2018-12-31T23:45:13.707Z,44.05
2018-12-31T23:47:39.896Z,33.00
2018-12-31T23:50:26.376Z,29.45
2018-12-31T23:52:52.456Z,28.38
2018-12-31T23:55:18.552Z,23.87
2018-12-31T23:57:44.734Z,24.12
